Time;durP1;ratioP1;P1;durP2;ratioP2;P2;SDS_P1;SDS_P2;PMS_P1;PMS_P2;Temp;Humidity;BMP_temperature;BMP_pressure;BME280_temperature;BME280_humidity;BME280_pressure;Samples;Min_cycle;Max_cycle;Signal;HPM_P1;HPM_P2
2021/12/26 00:00:07;;;;;;;;;;;;;;;-9.50;76.71;97981.03;5012903;28;20109;-78
2021/12/26 00:02:32;;;;;;;;;;;;;;;-9.54;77.06;97979.16;5013496;28;19965;-79
2021/12/26 00:04:58;;;;;;;;;;;;;;;-9.62;76.60;97976.31;5012044;28;19971;-78
2021/12/26 00:07:23;;;;;;;;;;;;;;;-9.62;77.16;97977.94;5013060;28;19956;-77
2021/12/26 00:09:48;;;;;;;;;;;;;;;-9.60;77.30;97987.28;5016610;28;19917;-77
2021/12/26 00:12:14;;;;;;;;;;;;;;;-9.64;77.46;97974.50;5016445;28;19924;-78
2021/12/26 00:14:41;;;;;;;;;;;;;;;-9.70;77.50;97975.09;5015472;28;20008;-78
2021/12/26 00:17:07;;;;;;;;;;;;;;;-9.76;77.72;97982.31;5014498;28;19944;-78
2021/12/26 00:19:32;;;;;;;;;;;;;;;-9.76;77.26;97988.22;5016181;28;19913;-77
2021/12/26 00:21:58;;;;;;;;;;;;;;;-9.77;77.96;97983.94;5015132;28;19964;-78
2021/12/26 00:24:23;;;;;;;;;;;;;;;-9.80;78.18;97980.47;4998693;28;19949;-78
2021/12/26 00:26:49;;;;;;;;;;;;;;;-9.83;77.97;97976.13;4998252;28;19921;-77
2021/12/26 00:29:15;;;;;;;;;;;;;;;-9.76;78.61;97984.81;5016111;28;20020;-78
2021/12/26 00:31:41;;;;;;;;;;;;;;;-9.78;78.42;97981.38;5016226;28;19995;-77
2021/12/26 00:34:06;;;;;;;;;;;;;;;-9.77;78.50;97981.44;5016178;28;19922;-78
2021/12/26 00:36:32;;;;;;;;;;;;;;;-9.74;78.95;97976.59;5014973;28;19917;-77
2021/12/26 00:38:57;;;;;;;;;;;;;;;-9.72;78.58;97979.16;4998313;28;19921;-78
2021/12/26 00:41:23;;;;;;;;;;;;;;;-9.68;78.52;97978.50;5015927;28;19917;-79
2021/12/26 00:43:52;;;;;;;;;;;;;;;-9.69;78.20;97975.94;5014813;28;19932;-78
2021/12/26 00:46:18;;;;;;;;;;;;;;;-9.71;78.22;97970.88;5014652;28;19921;-79
2021/12/26 00:48:43;;;;;;;;;;;;;;;-9.73;78.47;97978.28;5015827;28;19950;-78
2021/12/26 00:51:09;;;;;;;;;;;;;;;-9.68;78.84;97972.63;5015752;28;19917;-79
2021/12/26 00:53:34;;;;;;;;;;;;;;;-9.72;77.91;97967.47;4998421;28;19967;-78
2021/12/26 00:56:00;;;;;;;;;;;;;;;-9.73;78.86;97977.44;4997983;28;19943;-80
2021/12/26 00:58:25;;;;;;;;;;;;;;;-9.81;78.52;97972.03;5014445;28;19920;-78
2021/12/26 01:00:51;;;;;;;;;;;;;;;-9.80;79.12;97976.31;5014561;28;19921;-78
2021/12/26 01:03:18;;;;;;;;;;;;;;;-9.80;79.27;97968.78;4997817;28;19920;-78
2021/12/26 01:05:45;;;;;;;;;;;;;;;-9.80;79.11;97985.47;4997604;28;19917;-78
2021/12/26 01:08:12;;;;;;;;;;;;;;;-9.84;79.43;97969.41;5013919;28;19940;-78
2021/12/26 01:10:47;;;;;;;;;;;;;;;-9.82;79.70;97974.50;5013792;28;19917;-78
2021/12/26 01:13:29;;;;;;;;;;;;;;;-9.78;79.63;97976.38;4981420;28;19940;-78
2021/12/26 01:16:05;;;;;;;;;;;;;;;-9.77;79.39;97983.94;5014074;28;19924;-76
2021/12/26 01:18:35;;;;;;;;;;;;;;;-9.74;79.43;97978.22;4997306;28;19999;-78
2021/12/26 01:21:06;;;;;;;;;;;;;;;-9.70;79.49;97982.63;5013818;28;20364;-78
2021/12/26 01:23:32;;;;;;;;;;;;;;;-9.72;79.44;97990.03;4997304;28;19928;-78
2021/12/26 01:25:58;;;;;;;;;;;;;;;-9.69;79.64;97999.38;5014825;28;19936;-78
2021/12/26 01:28:28;;;;;;;;;;;;;;;-9.67;79.69;97991.91;5012831;28;20281;-78
2021/12/26 01:30:56;;;;;;;;;;;;;;;-9.62;79.57;97990.50;4997534;28;20465;-79
2021/12/26 01:33:21;;;;;;;;;;;;;;;-9.59;79.19;97994.00;5013217;28;19913;-79
2021/12/26 01:36:10;;;;;;;;;;;;;;;-9.56;79.28;97995.81;4997571;28;19918;-78
2021/12/26 01:38:56;;;;;;;;;;;;;;;-9.53;79.96;97990.91;5013299;28;19921;-78
2021/12/26 01:41:39;;;;;;;;;;;;;;;-9.47;79.74;97983.69;5011388;28;20447;-78
2021/12/26 01:44:27;;;;;;;;;;;;;;;-9.44;79.60;97973.78;5013263;28;19928;-78
2021/12/26 01:46:54;;;;;;;;;;;;;;;-9.39;79.65;97972.38;5013256;28;19917;-78
2021/12/26 01:49:27;;;;;;;;;;;;;;;-9.35;79.59;97963.31;4996707;28;20304;-78
2021/12/26 01:51:54;;;;;;;;;;;;;;;-9.30;79.81;97969.41;5014229;28;20392;-78
2021/12/26 01:54:46;;;;;;;;;;;;;;;-9.28;80.06;97961.16;4996682;28;19913;-78
2021/12/26 01:57:07;;;;;;;;;;;;;;;-9.25;79.91;97956.28;5026138;28;19968;-78
2021/12/26 01:59:33;;;;;;;;;;;;;;;-9.24;80.09;97969.69;5012929;28;19914;-78
2021/12/26 02:02:08;;;;;;;;;;;;;;;-9.22;79.77;97958.91;5011927;28;19940;-77
2021/12/26 02:04:36;;;;;;;;;;;;;;;-9.21;80.33;97964.78;4996607;28;19925;-78
2021/12/26 02:07:01;;;;;;;;;;;;;;;-9.17;80.41;97970.81;5014368;28;19913;-78
2021/12/26 02:09:27;;;;;;;;;;;;;;;-9.13;80.35;97970.19;4996331;28;19971;-78
2021/12/26 02:11:55;;;;;;;;;;;;;;;-9.07;80.28;97975.47;4996316;28;19913;-78
2021/12/26 02:14:21;;;;;;;;;;;;;;;-9.05;80.05;97961.34;5013539;28;19917;-78
2021/12/26 02:17:14;;;;;;;;;;;;;;;-9.09;80.49;97947.78;4998355;28;19971;-78
2021/12/26 02:19:40;;;;;;;;;;;;;;;-9.12;80.39;97969.38;5012770;28;20505;-78
2021/12/26 02:22:14;;;;;;;;;;;;;;;-9.10;80.55;97932.66;4996403;28;20033;-76
2021/12/26 02:27:33;;;;;;;;;;;;;;;-9.20;80.27;97940.56;5012807;28;19921;-77
2021/12/26 02:30:11;;;;;;;;;;;;;;;-9.25;80.62;97938.72;5011110;28;19968;-77
2021/12/26 02:32:36;;;;;;;;;;;;;;;-9.30;80.05;97925.09;5012170;28;19921;-77
2021/12/26 02:35:02;;;;;;;;;;;;;;;-9.36;80.51;97933.97;5012612;28;20339;-76
2021/12/26 02:37:28;;;;;;;;;;;;;;;-9.45;80.60;97934.41;5013680;28;20021;-76
2021/12/26 02:39:54;;;;;;;;;;;;;;;-9.48;80.89;97941.81;4996030;28;19921;-77
2021/12/26 02:42:19;;;;;;;;;;;;;;;-9.62;80.71;97946.19;4996077;28;20007;-77
2021/12/26 02:44:46;;;;;;;;;;;;;;;-9.65;81.14;97930.13;4995863;28;20372;-76
2021/12/26 02:47:13;;;;;;;;;;;;;;;-9.78;80.63;97934.56;5012170;28;19920;-77
2021/12/26 02:49:38;;;;;;;;;;;;;;;-9.85;80.91;97932.56;4995578;28;20404;-76
2021/12/26 02:52:03;;;;;;;;;;;;;;;-9.94;80.43;97918.72;5012180;28;19967;-78
2021/12/26 02:54:29;;;;;;;;;;;;;;;-10.00;80.79;97917.63;4995473;28;19959;-76
2021/12/26 02:56:55;;;;;;;;;;;;;;;-10.08;81.00;97918.94;5011905;28;19917;-78
2021/12/26 02:59:21;;;;;;;;;;;;;;;-10.14;80.95;97927.78;4995339;28;19920;-78
2021/12/26 03:01:47;;;;;;;;;;;;;;;-10.21;81.39;97931.66;5011957;28;19921;-78
2021/12/26 03:04:14;;;;;;;;;;;;;;;-10.20;82.02;97927.50;4995481;28;19913;-78
2021/12/26 03:06:49;;;;;;;;;;;;;;;-10.17;81.38;97937.66;5011995;28;19979;-78
2021/12/26 03:09:15;;;;;;;;;;;;;;;-10.26;81.63;97938.13;4995304;28;20315;-78
2021/12/26 03:11:43;;;;;;;;;;;;;;;-10.28;82.26;97934.66;5012920;28;19920;-79
2021/12/26 03:14:09;;;;;;;;;;;;;;;-10.37;81.56;97945.09;5011840;28;19961;-78
2021/12/26 03:16:35;;;;;;;;;;;;;;;-10.41;83.14;97952.41;4995642;28;19945;-78
2021/12/26 03:19:00;;;;;;;;;;;;;;;-10.40;82.88;97939.97;5012854;28;20000;-77
2021/12/26 03:21:26;;;;;;;;;;;;;;;-10.41;82.21;97933.19;5011906;28;19917;-77
2021/12/26 03:23:51;;;;;;;;;;;;;;;-10.43;82.19;97934.78;5011544;28;19928;-77
2021/12/26 03:26:17;;;;;;;;;;;;;;;-10.45;82.42;97941.34;4995389;28;19913;-78
2021/12/26 03:28:42;;;;;;;;;;;;;;;-10.41;82.71;97930.69;5011472;28;20348;-78
2021/12/26 03:31:08;;;;;;;;;;;;;;;-10.45;82.82;97920.44;4995398;28;19924;-78
2021/12/26 03:33:37;;;;;;;;;;;;;;;-10.43;82.84;97928.91;5011404;28;20380;-78
2021/12/26 03:36:02;;;;;;;;;;;;;;;-10.46;82.63;97924.59;4995196;28;19963;-78
2021/12/26 03:38:29;;;;;;;;;;;;;;;-10.48;82.89;97926.19;5011855;28;19921;-78
2021/12/26 03:41:27;;;;;;;;;;;;;;;-10.53;83.86;97938.47;4998530;28;19925;-78
2021/12/26 03:43:56;;;;;;;;;;;;;;;-10.50;83.40;97922.72;5015381;28;20407;-78
2021/12/26 03:46:21;;;;;;;;;;;;;;;-10.48;83.75;97912.78;5016638;28;19913;-77
2021/12/26 03:48:48;;;;;;;;;;;;;;;-10.50;84.24;97918.56;5015473;28;19928;-77
2021/12/26 03:51:14;;;;;;;;;;;;;;;-10.51;84.35;97913.50;5031863;28;19914;-76
2021/12/26 03:53:40;;;;;;;;;;;;;;;-10.46;84.37;97901.19;5015407;28;20016;-76
2021/12/26 03:56:06;;;;;;;;;;;;;;;-10.43;84.46;97906.34;5015635;28;19917;-77
2021/12/26 03:58:34;;;;;;;;;;;;;;;-10.43;83.54;97919.75;5014715;28;19967;-76
2021/12/26 04:01:00;;;;;;;;;;;;;;;-10.44;84.62;97918.03;4998811;28;20376;-76
2021/12/26 04:03:26;;;;;;;;;;;;;;;-10.44;83.51;97945.59;5015071;28;19921;-77
2021/12/26 04:05:58;;;;;;;;;;;;;;;-10.45;83.75;97915.44;5013748;28;19919;-77
2021/12/26 04:08:25;;;;;;;;;;;;;;;-10.42;83.36;97936.50;5014793;28;19972;-77
2021/12/26 04:10:51;;;;;;;;;;;;;;;-10.42;83.99;97916.44;4998596;28;19913;-77
2021/12/26 04:13:17;;;;;;;;;;;;;;;-10.42;83.58;97901.41;5016050;28;19928;-76
2021/12/26 04:15:44;;;;;;;;;;;;;;;-10.40;84.51;97889.84;4998769;28;19944;-76
2021/12/26 04:18:09;;;;;;;;;;;;;;;-10.34;83.65;97901.78;4998479;28;19975;-76
2021/12/26 04:20:35;;;;;;;;;;;;;;;-10.37;84.52;97897.47;4998733;28;19920;-77
2021/12/26 04:23:01;;;;;;;;;;;;;;;-10.34;84.59;97890.13;4982387;28;19922;-77
2021/12/26 04:25:27;;;;;;;;;;;;;;;-10.35;83.81;97895.94;5016028;28;19953;-77
2021/12/26 04:27:53;;;;;;;;;;;;;;;-10.28;84.58;97900.44;5014607;28;19917;-76
2021/12/26 04:30:19;;;;;;;;;;;;;;;-10.26;83.91;97908.91;5014607;28;19913;-77
2021/12/26 04:32:45;;;;;;;;;;;;;;;-10.27;83.67;97932.22;5014799;28;20405;-77
2021/12/26 04:35:12;;;;;;;;;;;;;;;-10.23;84.59;97926.56;4998945;28;19913;-76
2021/12/26 04:37:37;;;;;;;;;;;;;;;-10.24;84.47;97922.31;5014354;28;19925;-77
2021/12/26 04:40:07;;;;;;;;;;;;;;;-10.21;84.36;97920.78;4998348;28;19921;-78
2021/12/26 04:42:48;;;;;;;;;;;;;;;-10.19;83.82;97911.66;5014761;28;20420;-77
2021/12/26 04:45:37;;;;;;;;;;;;;;;-10.23;84.24;97911.50;5005440;28;19928;-77
2021/12/26 04:48:20;;;;;;;;;;;;;;;-10.15;84.10;97918.56;5015808;28;19944;-76
2021/12/26 04:50:46;;;;;;;;;;;;;;;-10.15;84.31;97911.88;4997808;28;19921;-77
2021/12/26 04:53:11;;;;;;;;;;;;;;;-10.14;84.08;97911.09;5013793;28;19920;-77
2021/12/26 04:55:37;;;;;;;;;;;;;;;-10.13;84.16;97919.47;5013719;28;20411;-77
2021/12/26 04:58:03;;;;;;;;;;;;;;;-10.16;83.80;97917.69;5014132;28;19996;-76
2021/12/26 05:00:29;;;;;;;;;;;;;;;-10.14;84.11;97923.63;4981473;28;19917;-76
2021/12/26 05:02:55;;;;;;;;;;;;;;;-10.11;83.94;97927.94;5014158;28;19913;-77
2021/12/26 05:05:20;;;;;;;;;;;;;;;-10.08;84.14;97903.00;5014131;28;20339;-76
2021/12/26 05:07:46;;;;;;;;;;;;;;;-10.02;83.87;97905.81;5015704;28;20015;-78
2021/12/26 05:10:12;;;;;;;;;;;;;;;-10.06;83.99;97911.47;5013786;28;20007;-79
2021/12/26 05:12:37;;;;;;;;;;;;;;;-10.05;83.94;97903.16;5014042;28;20424;-77
2021/12/26 05:15:04;;;;;;;;;;;;;;;-10.06;83.74;97901.44;5014233;28;20012;-77
2021/12/26 05:17:30;;;;;;;;;;;;;;;-10.07;83.92;97895.56;4997565;28;19913;-78
2021/12/26 05:19:56;;;;;;;;;;;;;;;-10.08;84.10;97897.97;5013759;28;19957;-78
2021/12/26 05:22:22;;;;;;;;;;;;;;;-10.07;83.40;97909.75;5013923;28;19961;-78
2021/12/26 05:24:48;;;;;;;;;;;;;;;-10.03;83.68;97921.66;4997119;28;19932;-79
2021/12/26 05:27:15;;;;;;;;;;;;;;;-10.06;83.15;97916.50;4997279;28;19920;-78
2021/12/26 05:29:40;;;;;;;;;;;;;;;-10.08;83.61;97910.53;5013418;28;19920;-78
2021/12/26 05:32:06;;;;;;;;;;;;;;;-10.07;83.68;97913.13;5014796;28;19972;-78
2021/12/26 05:34:32;;;;;;;;;;;;;;;-10.04;83.85;97902.34;5013578;28;20297;-78
2021/12/26 05:36:57;;;;;;;;;;;;;;;-9.96;83.46;97915.28;4997538;28;19920;-77
2021/12/26 05:39:24;;;;;;;;;;;;;;;-9.97;83.89;97924.44;5029294;28;19929;-78
2021/12/26 05:41:49;;;;;;;;;;;;;;;-9.96;83.84;97903.59;5013306;28;20033;-78
2021/12/26 05:44:31;;;;;;;;;;;;;;;-9.91;83.79;97911.34;5011082;28;19917;-76
2021/12/26 05:46:59;;;;;;;;;;;;;;;-9.85;83.71;97894.06;5012586;28;19917;-77
2021/12/26 05:49:28;;;;;;;;;;;;;;;-9.85;82.81;97902.47;4996604;28;20296;-78
2021/12/26 05:52:06;;;;;;;;;;;;;;;-9.86;83.22;97892.34;5011635;28;19921;-77
2021/12/26 05:54:40;;;;;;;;;;;;;;;-9.79;83.04;97906.91;5012340;28;20292;-78
2021/12/26 05:57:06;;;;;;;;;;;;;;;-9.80;83.03;97910.22;5013022;28;19924;-77
2021/12/26 05:59:32;;;;;;;;;;;;;;;-9.77;82.97;97911.19;4996714;28;19913;-77
2021/12/26 06:01:58;;;;;;;;;;;;;;;-9.75;82.96;97907.13;4996549;28;20296;-77
2021/12/26 06:04:24;;;;;;;;;;;;;;;-9.69;82.79;97895.66;4996616;28;19920;-77
2021/12/26 06:06:50;;;;;;;;;;;;;;;-9.69;82.59;97890.63;5012981;28;20019;-77
2021/12/26 06:09:16;;;;;;;;;;;;;;;-9.74;82.68;97896.28;5012810;28;20016;-77
2021/12/26 06:11:43;;;;;;;;;;;;;;;-9.74;82.76;97876.22;5012680;28;19917;-77
2021/12/26 06:14:09;;;;;;;;;;;;;;;-9.75;83.25;97872.00;4996431;28;19919;-77
2021/12/26 06:16:35;;;;;;;;;;;;;;;-9.72;82.77;97891.34;5012785;28;19984;-77
2021/12/26 06:19:02;;;;;;;;;;;;;;;-9.74;83.02;97893.78;4996615;28;20403;-77
2021/12/26 06:21:51;;;;;;;;;;;;;;;-9.67;82.83;97884.00;4981181;28;19917;-78
2021/12/26 06:24:39;;;;;;;;;;;;;;;-9.60;82.37;97884.38;5025981;28;20423;-77
2021/12/26 06:27:31;;;;;;;;;;;;;;;-9.59;81.73;97891.09;5011959;28;20311;-79
2021/12/26 06:30:31;;;;;;;;;;;;;;;-9.53;81.97;97890.53;5013063;28;19925;-80
2021/12/26 06:32:57;;;;;;;;;;;;;;;-9.56;81.35;97883.72;5014368;28;19921;-79
2021/12/26 06:35:41;;;;;;;;;;;;;;;-9.55;81.52;97882.06;5013276;28;19920;-80
2021/12/26 06:38:36;;;;;;;;;;;;;;;-9.56;81.12;97880.38;4989650;28;20445;-81
2021/12/26 06:41:20;;;;;;;;;;;;;;;-9.58;81.19;97881.94;5014244;28;19982;-79
2021/12/26 06:44:06;;;;;;;;;;;;;;;-9.53;80.88;97893.91;5014400;28;19963;-77
2021/12/26 06:46:54;;;;;;;;;;;;;;;-9.56;80.58;97893.78;4995655;28;19917;-78
2021/12/26 06:49:35;;;;;;;;;;;;;;;-9.58;80.61;97887.81;4996001;28;19969;-77
2021/12/26 06:52:03;;;;;;;;;;;;;;;-9.61;80.16;97884.31;5012180;28;19924;-78
2021/12/26 06:54:28;;;;;;;;;;;;;;;-9.57;80.34;97891.19;5012202;28;19913;-79
2021/12/26 06:56:54;;;;;;;;;;;;;;;-9.63;80.23;97888.38;5012284;28;20288;-77
2021/12/26 06:59:19;;;;;;;;;;;;;;;-9.62;80.54;97900.13;5012344;28;20373;-78
2021/12/26 07:01:45;;;;;;;;;;;;;;;-9.55;80.20;97892.13;5011997;28;19917;-78
2021/12/26 07:04:14;;;;;;;;;;;;;;;-9.56;80.37;97885.38;4995893;28;19920;-80
2021/12/26 07:06:39;;;;;;;;;;;;;;;-9.53;80.28;97875.47;4995525;28;19917;-80
2021/12/26 07:09:17;;;;;;;;;;;;;;;-9.51;80.27;97884.78;4995833;28;19921;-80
2021/12/26 07:11:44;;;;;;;;;;;;;;;-9.52;80.20;97884.75;5012137;28;19917;-81
2021/12/26 07:14:19;;;;;;;;;;;;;;;-9.47;80.07;97868.22;4996038;28;19944;-79
2021/12/26 07:16:46;;;;;;;;;;;;;;;-9.42;79.98;97868.44;4979179;28;19923;-79
2021/12/26 07:19:11;;;;;;;;;;;;;;;-9.44;80.30;97859.97;4995849;28;19913;-80
2021/12/26 07:21:40;;;;;;;;;;;;;;;-9.44;80.25;97880.03;5028565;28;19963;-77
2021/12/26 07:24:07;;;;;;;;;;;;;;;-9.51;80.38;97873.91;4996071;28;19917;-80
2021/12/26 07:26:33;;;;;;;;;;;;;;;-9.50;80.50;97870.59;5012228;28;19967;-78
2021/12/26 07:28:59;;;;;;;;;;;;;;;-9.54;80.68;97844.50;4995706;28;19917;-80
2021/12/26 07:31:31;;;;;;;;;;;;;;;-9.47;80.34;97866.56;5012155;28;19917;-79
2021/12/26 07:34:02;;;;;;;;;;;;;;;-9.41;80.52;97850.91;4995387;28;19918;-80
2021/12/26 07:36:28;;;;;;;;;;;;;;;-9.41;80.53;97860.97;4995603;28;20392;-81
2021/12/26 07:39:12;;;;;;;;;;;;;;;-9.33;80.51;97867.19;5013838;28;19928;-83
2021/12/26 07:41:37;;;;;;;;;;;;;;;-9.31;79.96;97869.75;5012250;28;20331;-80
2021/12/26 07:44:06;;;;;;;;;;;;;;;-9.26;80.25;97866.66;4996362;28;19917;-81
2021/12/26 07:46:31;;;;;;;;;;;;;;;-9.27;79.89;97854.91;5012784;28;20522;-81
2021/12/26 07:49:01;;;;;;;;;;;;;;;-9.26;79.92;97869.16;4996162;28;19963;-80
2021/12/26 07:51:47;;;;;;;;;;;;;;;-9.19;80.06;97855.25;4998963;28;19924;-82
2021/12/26 07:54:31;;;;;;;;;;;;;;;-9.22;79.84;97850.94;5012950;28;19993;-80
2021/12/26 07:57:16;;;;;;;;;;;;;;;-9.17;79.82;97840.22;4999523;28;19924;-80
2021/12/26 08:00:00;;;;;;;;;;;;;;;-9.17;79.81;97842.75;4999207;28;19971;-80
2021/12/26 08:02:58;;;;;;;;;;;;;;;-9.12;79.69;97838.78;5000760;28;19917;-83
2021/12/26 08:05:55;;;;;;;;;;;;;;;-9.10;79.26;97837.22;5012337;28;20396;-80
2021/12/26 08:08:42;;;;;;;;;;;;;;;-9.01;79.07;97825.03;5012806;28;19929;-79
2021/12/26 08:11:07;;;;;;;;;;;;;;;-8.97;79.56;97827.75;5012502;28;19917;-82
2021/12/26 08:13:33;;;;;;;;;;;;;;;-8.87;79.74;97836.53;5011971;28;19963;-77
2021/12/26 08:15:58;;;;;;;;;;;;;;;-8.89;78.90;97824.69;5011868;28;19917;-79
2021/12/26 08:18:24;;;;;;;;;;;;;;;-8.78;79.20;97826.00;5011978;28;19917;-79
2021/12/26 08:20:49;;;;;;;;;;;;;;;-8.75;78.55;97816.06;4995279;28;20350;-77
2021/12/26 08:23:15;;;;;;;;;;;;;;;-8.72;78.26;97829.63;5013065;28;20374;-80
2021/12/26 08:25:41;;;;;;;;;;;;;;;-8.68;78.42;97814.69;5011424;28;19917;-78
2021/12/26 08:28:06;;;;;;;;;;;;;;;-8.68;78.44;97808.00;5013146;28;19921;-80
2021/12/26 08:30:34;;;;;;;;;;;;;;;-8.54;78.53;97821.13;4998650;28;20384;-84
2021/12/26 08:33:04;;;;;;;;;;;;;;;-8.56;77.98;97808.50;4999089;28;20012;-81
2021/12/26 08:35:30;;;;;;;;;;;;;;;-8.57;78.30;97791.69;4998213;28;20340;-80
2021/12/26 08:37:56;;;;;;;;;;;;;;;-8.55;78.23;97819.41;4998954;28;19976;-83
2021/12/26 08:40:21;;;;;;;;;;;;;;;-8.53;77.84;97790.16;5014815;28;19928;-80
2021/12/26 08:42:47;;;;;;;;;;;;;;;-8.52;78.46;97790.25;5016241;28;19917;-82
2021/12/26 08:45:12;;;;;;;;;;;;;;;-8.49;78.05;97797.03;4999041;28;19964;-81
2021/12/26 08:47:39;;;;;;;;;;;;;;;-8.52;78.19;97814.50;5015356;28;19913;-77
2021/12/26 08:50:05;;;;;;;;;;;;;;;-8.56;78.39;97797.59;5015387;28;20395;-79
2021/12/26 08:52:31;;;;;;;;;;;;;;;-8.61;77.59;97788.97;4982647;28;19921;-80
2021/12/26 08:54:56;;;;;;;;;;;;;;;-8.54;77.34;97781.75;5015382;28;19921;-79
2021/12/26 08:57:21;;;;;;;;;;;;;;;-8.55;77.29;97789.25;4999308;28;19920;-78
2021/12/26 08:59:47;;;;;;;;;;;;;;;-8.48;76.71;97781.13;4998858;28;20039;-78
2021/12/26 09:02:13;;;;;;;;;;;;;;;-8.49;76.56;97771.88;4998683;28;20308;-80
2021/12/26 09:04:39;;;;;;;;;;;;;;;-8.43;77.05;97778.81;5014802;28;19924;-78
2021/12/26 09:07:05;;;;;;;;;;;;;;;-8.33;77.07;97759.09;5014803;28;19936;-77
2021/12/26 09:09:30;;;;;;;;;;;;;;;-8.25;76.41;97752.69;4998321;28;19921;-77
2021/12/26 09:11:56;;;;;;;;;;;;;;;-8.18;76.08;97797.41;5014574;28;19928;-81
2021/12/26 09:14:22;;;;;;;;;;;;;;;-8.10;75.84;97764.16;5014836;28;19917;-81
2021/12/26 09:16:47;;;;;;;;;;;;;;;-8.07;75.49;97764.25;5014749;28;19914;-81
2021/12/26 09:19:13;;;;;;;;;;;;;;;-8.04;74.63;97774.44;4998325;28;19921;-79
2021/12/26 09:21:38;;;;;;;;;;;;;;;-8.12;75.13;97785.88;4998474;28;19913;-79
2021/12/26 09:24:04;;;;;;;;;;;;;;;-8.02;74.75;97757.75;5014944;28;19921;-79
2021/12/26 09:26:29;;;;;;;;;;;;;;;-8.03;75.07;97744.31;5015859;28;19913;-77
2021/12/26 09:28:55;;;;;;;;;;;;;;;-8.03;75.20;97751.00;4997974;28;20024;-77
2021/12/26 09:31:20;;;;;;;;;;;;;;;-7.96;74.67;97752.97;5015668;28;19974;-78
2021/12/26 09:33:46;;;;;;;;;;;;;;;-7.97;74.39;97731.97;5014212;28;20047;-79
2021/12/26 09:36:11;;;;;;;;;;;;;;;-7.90;75.28;97738.06;5013953;28;19920;-80
2021/12/26 09:38:38;;;;;;;;;;;;;;;-7.88;75.78;97738.97;5014024;28;19917;-80
2021/12/26 09:41:04;;;;;;;;;;;;;;;-7.79;74.64;97720.84;5013997;28;20299;-82
2021/12/26 09:43:29;;;;;;;;;;;;;;;-7.81;74.99;97743.44;5015554;28;19918;-82
2021/12/26 09:45:55;;;;;;;;;;;;;;;-7.80;75.13;97737.59;4997600;28;20373;-81
2021/12/26 09:48:20;;;;;;;;;;;;;;;-7.79;75.08;97741.88;5013982;28;19943;-79
2021/12/26 09:50:46;;;;;;;;;;;;;;;-7.86;74.02;97722.28;4997955;28;19921;-78
2021/12/26 09:53:12;;;;;;;;;;;;;;;-7.79;75.11;97706.63;5030024;28;19927;-80
2021/12/26 09:55:37;;;;;;;;;;;;;;;-7.79;73.61;97699.06;4997878;28;19917;-78
2021/12/26 09:58:03;;;;;;;;;;;;;;;-7.83;73.67;97735.00;4997582;28;20349;-79
2021/12/26 10:00:28;;;;;;;;;;;;;;;-7.65;74.38;97718.81;4997590;28;20004;-78
2021/12/26 10:03:33;;;;;;;;;;;;;;;-7.51;73.04;97710.13;5013740;28;19956;-78
2021/12/26 10:06:17;;;;;;;;;;;;;;;-7.39;72.84;97733.19;4977727;28;19917;-82
2021/12/26 10:08:50;;;;;;;;;;;;;;;-7.34;72.21;97715.72;4980825;28;19929;-80
2021/12/26 10:11:16;;;;;;;;;;;;;;;-7.28;72.00;97731.94;5015146;28;19917;-80
2021/12/26 10:13:43;;;;;;;;;;;;;;;-7.29;73.18;97739.41;5014734;28;19979;-78
2021/12/26 10:16:08;;;;;;;;;;;;;;;-7.30;73.26;97731.00;5014818;28;19948;-81
2021/12/26 10:18:39;;;;;;;;;;;;;;;-7.19;73.53;97721.31;4996990;28;19948;-80
2021/12/26 10:21:23;;;;;;;;;;;;;;;-7.22;73.12;97704.41;5014759;28;19936;-77
2021/12/26 10:23:49;;;;;;;;;;;;;;;-6.85;73.31;97690.50;5014543;28;19992;-77
2021/12/26 10:26:22;;;;;;;;;;;;;;;-6.19;70.50;97683.28;5014666;28;19913;-78
2021/12/26 10:29:06;;;;;;;;;;;;;;;-5.49;67.75;97688.63;4996837;28;19925;-78
2021/12/26 10:31:31;;;;;;;;;;;;;;;-4.75;65.32;97694.75;5013059;28;19921;-78
2021/12/26 10:33:57;;;;;;;;;;;;;;;-4.66;64.26;97677.25;5014359;28;19920;-78
2021/12/26 10:36:23;;;;;;;;;;;;;;;-4.41;63.40;97695.53;5014301;28;20330;-78
2021/12/26 10:39:08;;;;;;;;;;;;;;;-4.30;62.60;97685.69;5013074;28;19918;-78
2021/12/26 10:41:38;;;;;;;;;;;;;;;-4.25;63.00;97682.41;5013077;28;19917;-79
2021/12/26 10:44:04;;;;;;;;;;;;;;;-4.33;62.32;97710.91;5014012;28;19918;-78
2021/12/26 10:46:31;;;;;;;;;;;;;;;-4.64;62.06;97678.13;4996396;28;20312;-80
2021/12/26 10:49:16;;;;;;;;;;;;;;;-4.44;62.52;97673.56;4996614;28;19968;-80
2021/12/26 10:51:42;;;;;;;;;;;;;;;-3.95;61.46;97678.81;4996292;28;20016;-81
2021/12/26 10:54:11;;;;;;;;;;;;;;;-3.87;61.12;97692.50;5013662;28;20008;-79
2021/12/26 10:56:37;;;;;;;;;;;;;;;-4.11;61.31;97708.03;5014197;28;20020;-78
2021/12/26 10:59:21;;;;;;;;;;;;;;;-4.47;62.33;97708.91;5013902;28;20420;-83
2021/12/26 11:01:48;;;;;;;;;;;;;;;-4.66;62.96;97701.72;4996566;28;20400;-83
2021/12/26 11:04:14;;;;;;;;;;;;;;;-4.67;63.01;97693.28;5014083;28;19967;-78
2021/12/26 11:06:58;;;;;;;;;;;;;;;-4.73;62.50;97707.44;5014085;28;19917;-80
2021/12/26 11:09:24;;;;;;;;;;;;;;;-4.68;62.86;97700.81;5012409;28;20343;-79
2021/12/26 11:12:06;;;;;;;;;;;;;;;-4.80;63.05;97705.59;4996008;28;19917;-79
2021/12/26 11:14:31;;;;;;;;;;;;;;;-5.23;63.91;97692.69;5014446;28;19979;-81
2021/12/26 11:16:57;;;;;;;;;;;;;;;-5.45;65.30;97695.44;5013521;28;19917;-79
2021/12/26 11:19:41;;;;;;;;;;;;;;;-5.51;65.44;97696.16;5013702;28;19917;-78
2021/12/26 11:22:07;;;;;;;;;;;;;;;-5.77;66.48;97687.88;5012188;28;19925;-78
2021/12/26 11:24:32;;;;;;;;;;;;;;;-5.94;66.69;97694.13;5012508;28;20334;-80
2021/12/26 11:26:58;;;;;;;;;;;;;;;-6.15;68.24;97690.16;5012111;28;19918;-78
2021/12/26 11:29:23;;;;;;;;;;;;;;;-6.12;67.55;97696.13;5012101;28;19924;-78
2021/12/26 11:31:50;;;;;;;;;;;;;;;-6.10;68.64;97687.75;5012314;28;19921;-79
2021/12/26 11:34:16;;;;;;;;;;;;;;;-6.09;68.29;97708.81;5013441;28;19963;-79
2021/12/26 11:36:41;;;;;;;;;;;;;;;-6.27;68.28;97720.09;4996139;28;20404;-80
2021/12/26 11:39:20;;;;;;;;;;;;;;;-6.37;68.86;97692.84;4996156;28;20052;-80
2021/12/26 11:42:04;;;;;;;;;;;;;;;-6.29;69.28;97691.41;5013937;28;20288;-82
2021/12/26 11:45:17;;;;;;;;;;;;;;;-6.47;69.13;97695.91;4991074;28;19917;-78
2021/12/26 11:48:27;;;;;;;;;;;;;;;-6.52;69.48;97697.41;4993851;28;19921;-77
2021/12/26 11:51:21;;;;;;;;;;;;;;;-6.51;69.50;97694.09;5012886;28;19924;-81
2021/12/26 11:54:08;;;;;;;;;;;;;;;-6.51;70.07;97679.81;5012613;28;19924;-81
2021/12/26 11:56:50;;;;;;;;;;;;;;;-6.53;69.66;97678.06;5012083;28;19921;-77
2021/12/26 11:59:24;;;;;;;;;;;;;;;-6.66;69.67;97679.34;5013428;28;19922;-78
2021/12/26 12:01:50;;;;;;;;;;;;;;;-6.73;71.16;97683.34;5012594;28;19917;-83
2021/12/26 12:04:18;;;;;;;;;;;;;;;-6.79;70.45;97713.38;5014815;28;19917;-78
2021/12/26 12:06:45;;;;;;;;;;;;;;;-6.75;71.04;97705.13;5016868;28;20335;-79
2021/12/26 12:09:22;;;;;;;;;;;;;;;-6.72;71.83;97702.69;5017093;28;20012;-77
2021/12/26 12:11:58;;;;;;;;;;;;;;;-6.86;70.94;97740.88;5016028;28;20366;-81
2021/12/26 12:14:42;;;;;;;;;;;;;;;-6.91;72.03;97715.53;5015850;28;20004;-79
2021/12/26 12:17:18;;;;;;;;;;;;;;;-6.86;72.29;97726.63;5016879;28;19961;-81
2021/12/26 12:20:02;;;;;;;;;;;;;;;-6.86;72.00;97726.63;5016247;28;19924;-82
2021/12/26 12:22:28;;;;;;;;;;;;;;;-6.90;72.15;97724.78;5017202;28;20028;-83
2021/12/26 12:24:53;;;;;;;;;;;;;;;-6.86;72.29;97730.81;5015574;28;19952;-80
2021/12/26 12:27:20;;;;;;;;;;;;;;;-6.88;73.08;97730.72;5015839;28;20462;-83
2021/12/26 12:29:46;;;;;;;;;;;;;;;-6.89;73.11;97733.22;4999304;28;19960;-81
2021/12/26 12:32:13;;;;;;;;;;;;;;;-6.88;73.19;97748.38;4999614;28;19917;-78
2021/12/26 12:34:46;;;;;;;;;;;;;;;-6.96;72.56;97749.81;4999095;28;19913;-79
2021/12/26 12:37:11;;;;;;;;;;;;;;;-6.97;74.12;97735.47;5016657;28;19924;-77
2021/12/26 12:39:37;;;;;;;;;;;;;;;-6.99;73.30;97735.44;4998378;28;19921;-79
2021/12/26 12:42:02;;;;;;;;;;;;;;;-6.95;73.86;97737.25;5015079;28;20313;-77
2021/12/26 12:44:31;;;;;;;;;;;;;;;-7.00;73.99;97717.75;4998646;28;19920;-78
2021/12/26 12:47:02;;;;;;;;;;;;;;;-6.97;75.54;97708.59;5016371;28;20321;-78
2021/12/26 12:49:40;;;;;;;;;;;;;;;-6.98;75.83;97699.31;5015169;28;19922;-78
2021/12/26 12:52:06;;;;;;;;;;;;;;;-6.98;76.32;97706.03;5016085;28;19917;-78
2021/12/26 12:54:32;;;;;;;;;;;;;;;-6.98;75.81;97706.88;4998384;28;19920;-78
2021/12/26 12:57:06;;;;;;;;;;;;;;;-7.05;75.29;97710.03;5014813;28;20062;-78
2021/12/26 12:59:33;;;;;;;;;;;;;;;-7.06;76.16;97702.41;5014788;28;20340;-78
2021/12/26 13:02:06;;;;;;;;;;;;;;;-7.10;76.55;97711.53;5014762;28;19956;-78